createdAt,value
2017-12-10T00:00:04.286Z,5.30
2017-12-10T00:01:04.315Z,5.30
2017-12-10T00:02:04.346Z,5.60
2017-12-10T00:03:04.375Z,5.30
2017-12-10T00:04:04.405Z,5.30
2017-12-10T00:05:04.440Z,5.40
2017-12-10T00:06:04.465Z,5.50
2017-12-10T00:07:04.493Z,5.60
2017-12-10T00:08:04.522Z,5.70
2017-12-10T00:09:04.554Z,5.40
2017-12-10T00:10:04.582Z,5.40
2017-12-10T00:11:04.614Z,5.60
2017-12-10T00:12:04.643Z,5.40
2017-12-10T00:13:04.673Z,5.80
2017-12-10T00:14:04.704Z,5.50
2017-12-10T00:15:04.744Z,5.80
2017-12-10T00:16:04.764Z,5.50
2017-12-10T00:17:04.791Z,5.90
2017-12-10T00:18:04.825Z,5.90
2017-12-10T00:19:04.849Z,6.30
2017-12-10T00:20:04.886Z,5.90
2017-12-10T00:21:04.916Z,5.90
2017-12-10T00:22:04.940Z,6.40
2017-12-10T00:23:04.969Z,6.10
2017-12-10T00:24:05.080Z,6.00
2017-12-10T00:25:05.071Z,6.50
2017-12-10T00:26:05.061Z,6.30
2017-12-10T00:27:05.092Z,5.70
2017-12-10T00:28:05.125Z,6.20
2017-12-10T00:29:05.151Z,6.40
2017-12-10T00:30:05.178Z,6.10
2017-12-10T00:31:05.207Z,6.40
2017-12-10T00:32:05.242Z,6.50
2017-12-10T00:33:05.340Z,6.60
2017-12-10T00:34:05.302Z,6.90
2017-12-10T00:35:05.336Z,6.70
2017-12-10T00:36:05.356Z,7.50
2017-12-10T00:37:05.387Z,7.30
2017-12-10T00:38:05.426Z,7.60
2017-12-10T00:39:05.458Z,8.00
2017-12-10T00:40:05.475Z,7.70
2017-12-10T00:41:05.508Z,7.10
2017-12-10T00:42:05.541Z,8.30
2017-12-10T00:43:05.566Z,8.30
2017-12-10T00:44:05.689Z,8.70
2017-12-10T00:45:05.628Z,7.80
2017-12-10T00:46:05.668Z,8.10
2017-12-10T00:47:05.687Z,8.30
2017-12-10T00:48:05.716Z,8.00
2017-12-10T00:49:05.743Z,8.10
2017-12-10T00:50:05.772Z,8.30
2017-12-10T00:51:05.802Z,9.00
2017-12-10T00:52:05.833Z,8.60
2017-12-10T00:53:05.863Z,8.20
2017-12-10T00:54:05.891Z,8.50
2017-12-10T00:55:05.924Z,8.10
2017-12-10T00:56:05.951Z,7.80
2017-12-10T00:57:05.981Z,8.20
2017-12-10T00:58:06.026Z,8.60
2017-12-10T00:59:06.040Z,8.40
2017-12-10T01:00:06.072Z,8.90
2017-12-10T01:01:06.105Z,8.20
2017-12-10T01:02:06.128Z,8.30
2017-12-10T01:03:06.160Z,8.40
2017-12-10T01:04:06.189Z,9.00
2017-12-10T01:05:06.217Z,8.60
2017-12-10T01:06:06.248Z,9.00
2017-12-10T01:07:06.275Z,8.40
2017-12-10T01:08:06.304Z,8.60
2017-12-10T01:09:06.341Z,8.40
2017-12-10T01:10:06.367Z,8.40
2017-12-10T01:11:06.392Z,9.10
2017-12-10T01:12:06.430Z,8.60
2017-12-10T01:13:06.453Z,8.70
2017-12-10T01:14:06.486Z,8.70
2017-12-10T01:15:06.515Z,8.90
2017-12-10T01:16:06.546Z,8.30
2017-12-10T01:17:06.581Z,8.00
2017-12-10T01:18:06.601Z,8.60
2017-12-10T01:19:06.629Z,8.60
2017-12-10T01:20:06.658Z,9.10
2017-12-10T01:21:06.694Z,9.10
2017-12-10T01:22:06.735Z,8.40
2017-12-10T01:23:06.746Z,8.60
2017-12-10T01:24:06.788Z,8.30
2017-12-10T01:25:06.812Z,9.00
2017-12-10T01:26:06.836Z,13.50
2017-12-10T01:27:06.867Z,10.90
2017-12-10T01:28:06.897Z,8.40
2017-12-10T01:29:06.927Z,7.90
2017-12-10T01:30:06.955Z,8.60
2017-12-10T01:31:06.985Z,8.00
2017-12-10T01:32:07.011Z,8.80
2017-12-10T01:33:07.043Z,8.40
2017-12-10T01:34:07.077Z,8.60
2017-12-10T01:35:07.173Z,8.20
2017-12-10T01:36:07.140Z,7.70
2017-12-10T01:37:07.159Z,8.00
2017-12-10T01:38:07.192Z,7.40
2017-12-10T01:39:07.220Z,8.10
2017-12-10T01:40:07.254Z,7.20
2017-12-10T01:41:07.278Z,7.40
2017-12-10T01:42:07.309Z,7.50
2017-12-10T01:43:07.335Z,16.00
2017-12-10T01:44:07.506Z,14.50
2017-12-10T01:45:07.395Z,9.40
2017-12-10T01:46:07.438Z,7.40
2017-12-10T01:47:07.455Z,7.10
2017-12-10T01:48:07.481Z,8.30
2017-12-10T01:49:07.522Z,7.30
2017-12-10T01:50:07.546Z,7.50
2017-12-10T01:51:07.579Z,8.30
2017-12-10T01:52:07.605Z,8.30
2017-12-10T01:53:07.634Z,8.30
2017-12-10T01:54:07.663Z,7.40
2017-12-10T01:55:07.697Z,8.10
2017-12-10T01:56:07.728Z,7.80
2017-12-10T01:57:07.805Z,7.40
2017-12-10T01:58:07.785Z,7.70
2017-12-10T01:59:07.809Z,7.90
2017-12-10T02:00:07.837Z,7.50
2017-12-10T02:01:07.864Z,7.30
2017-12-10T02:02:07.898Z,7.00
2017-12-10T02:03:07.924Z,7.10
2017-12-10T02:04:07.954Z,7.00
2017-12-10T02:05:07.985Z,7.60
2017-12-10T02:06:08.015Z,7.30
2017-12-10T02:07:08.045Z,6.90
2017-12-10T02:08:08.073Z,8.90
2017-12-10T02:09:08.106Z,8.30
2017-12-10T02:10:08.134Z,7.40
2017-12-10T02:11:08.159Z,7.90
2017-12-10T02:12:08.190Z,7.10
2017-12-10T02:13:08.220Z,8.20
2017-12-10T02:14:08.251Z,8.20
2017-12-10T02:15:08.281Z,7.60
2017-12-10T02:16:08.311Z,5.70
2017-12-10T02:17:08.341Z,6.10
2017-12-10T02:18:08.371Z,6.30
2017-12-10T02:19:08.402Z,6.20
2017-12-10T02:20:08.430Z,6.70
2017-12-10T02:21:08.458Z,8.10
2017-12-10T02:22:08.492Z,9.50
2017-12-10T02:23:08.517Z,9.50
2017-12-10T02:24:08.552Z,9.60
2017-12-10T02:25:08.577Z,7.40
2017-12-10T02:26:08.606Z,8.50
2017-12-10T02:27:08.637Z,11.50
2017-12-10T02:28:08.680Z,9.10
2017-12-10T02:29:08.697Z,7.10
2017-12-10T02:30:08.728Z,6.00
2017-12-10T02:31:08.757Z,6.00
2017-12-10T02:32:08.794Z,6.80
2017-12-10T02:33:08.818Z,6.70
2017-12-10T02:34:08.870Z,6.00
2017-12-10T02:35:08.884Z,5.50
2017-12-10T02:36:08.907Z,5.30
2017-12-10T02:37:08.945Z,4.60
2017-12-10T02:38:08.965Z,4.80
2017-12-10T02:39:08.992Z,4.60
2017-12-10T02:40:09.032Z,5.10
2017-12-10T02:41:09.063Z,4.80
2017-12-10T02:42:09.083Z,4.90
2017-12-10T02:43:09.111Z,4.60
2017-12-10T02:44:09.142Z,4.00
2017-12-10T02:45:09.171Z,4.30
2017-12-10T02:46:09.216Z,5.30
2017-12-10T02:47:09.232Z,4.40
2017-12-10T02:48:09.265Z,4.70
2017-12-10T02:49:09.288Z,4.50
2017-12-10T02:50:09.318Z,4.30
2017-12-10T02:51:09.347Z,4.20
2017-12-10T02:52:09.379Z,4.00
2017-12-10T02:53:09.410Z,3.70
2017-12-10T02:54:09.441Z,4.10
2017-12-10T02:55:09.515Z,4.20
2017-12-10T02:56:09.493Z,3.90
2017-12-10T02:57:09.535Z,3.80
2017-12-10T02:58:09.553Z,3.90
2017-12-10T02:59:09.585Z,4.10
2017-12-10T03:00:09.615Z,4.00
2017-12-10T03:01:09.646Z,4.20
2017-12-10T03:02:09.682Z,3.70
2017-12-10T03:03:09.705Z,3.60
2017-12-10T03:04:09.733Z,3.70
2017-12-10T03:05:09.764Z,3.70
2017-12-10T03:06:09.793Z,3.40
2017-12-10T03:07:09.824Z,3.80
2017-12-10T03:08:09.853Z,3.40
2017-12-10T03:09:09.881Z,3.80
2017-12-10T03:10:09.912Z,3.60
2017-12-10T03:11:09.941Z,4.00
2017-12-10T03:12:09.971Z,3.90
2017-12-10T03:13:10.003Z,3.90
2017-12-10T03:14:10.031Z,3.70
2017-12-10T03:15:10.057Z,3.80
2017-12-10T03:16:10.091Z,4.20
2017-12-10T03:17:10.122Z,3.70
2017-12-10T03:18:10.151Z,3.50
2017-12-10T03:19:10.177Z,3.90
2017-12-10T03:20:10.205Z,3.30
2017-12-10T03:21:10.233Z,3.80
2017-12-10T03:22:10.267Z,3.40
2017-12-10T03:23:10.293Z,3.40
2017-12-10T03:24:10.326Z,3.60
2017-12-10T03:25:10.351Z,3.80
2017-12-10T03:26:10.388Z,3.70
2017-12-10T03:27:10.416Z,3.90
2017-12-10T03:28:10.457Z,4.00
2017-12-10T03:29:10.478Z,3.90
2017-12-10T03:30:10.511Z,4.20
2017-12-10T03:31:10.534Z,4.70
2017-12-10T03:32:10.558Z,4.40
2017-12-10T03:33:10.590Z,4.40
2017-12-10T03:34:10.622Z,4.90
2017-12-10T03:35:10.646Z,4.60
2017-12-10T03:36:10.678Z,4.80
2017-12-10T03:37:10.705Z,4.70
2017-12-10T03:38:10.744Z,5.00
2017-12-10T03:39:10.765Z,5.10
2017-12-10T03:40:10.796Z,4.70
2017-12-10T03:41:10.824Z,4.70
2017-12-10T03:42:10.853Z,4.60
2017-12-10T03:43:10.882Z,4.80
2017-12-10T03:44:10.915Z,4.60
2017-12-10T03:45:10.946Z,4.50
2017-12-10T03:46:10.971Z,4.50
2017-12-10T03:47:10.997Z,4.60
2017-12-10T03:48:11.040Z,5.00
2017-12-10T03:49:11.064Z,5.20
2017-12-10T03:50:11.088Z,5.10
2017-12-10T03:51:11.122Z,5.00
2017-12-10T03:52:11.151Z,5.00
2017-12-10T03:53:11.182Z,4.80
2017-12-10T03:54:11.205Z,5.30
2017-12-10T03:55:11.237Z,5.40
2017-12-10T03:56:11.272Z,5.40
2017-12-10T03:57:11.300Z,5.70
2017-12-10T03:58:11.320Z,5.20
2017-12-10T03:59:11.370Z,5.30
2017-12-10T04:00:11.387Z,5.10
2017-12-10T04:01:11.413Z,5.20
2017-12-10T04:02:11.440Z,5.30
2017-12-10T04:03:11.466Z,5.00
2017-12-10T04:04:11.496Z,5.20
2017-12-10T04:05:11.525Z,5.90
2017-12-10T04:06:11.554Z,5.80
2017-12-10T04:07:11.582Z,5.90
2017-12-10T04:08:11.713Z,5.40
2017-12-10T04:09:11.643Z,5.10
2017-12-10T04:10:11.707Z,5.50
2017-12-10T04:11:11.700Z,5.20
2017-12-10T04:12:11.731Z,5.00
2017-12-10T04:13:11.759Z,5.70
2017-12-10T04:14:11.789Z,5.70
2017-12-10T04:15:11.817Z,5.80
2017-12-10T04:16:11.847Z,5.60
2017-12-10T04:17:11.875Z,5.50
2017-12-10T04:18:11.908Z,5.60
2017-12-10T04:19:11.938Z,5.70
2017-12-10T04:20:11.966Z,5.80
2017-12-10T04:21:11.993Z,5.90
2017-12-10T04:22:12.024Z,6.10
2017-12-10T04:23:12.054Z,6.00
2017-12-10T04:24:12.083Z,6.10
2017-12-10T04:25:12.109Z,5.90
2017-12-10T04:26:12.139Z,5.80
2017-12-10T04:27:12.169Z,6.10
2017-12-10T04:28:12.212Z,5.70
2017-12-10T04:29:12.229Z,5.40
2017-12-10T04:30:12.260Z,6.40
2017-12-10T04:31:12.283Z,6.20
2017-12-10T04:32:12.314Z,6.00
2017-12-10T04:33:12.342Z,6.20
2017-12-10T04:34:12.372Z,5.80
2017-12-10T04:35:12.399Z,6.10
2017-12-10T04:36:12.432Z,5.90
2017-12-10T04:37:12.459Z,6.30
2017-12-10T04:38:12.490Z,5.80
2017-12-10T04:39:12.519Z,5.90
2017-12-10T04:40:12.549Z,5.90
2017-12-10T04:41:12.581Z,6.10
2017-12-10T04:42:12.605Z,6.70
2017-12-10T04:43:12.632Z,5.60
2017-12-10T04:44:12.663Z,6.20
2017-12-10T04:45:12.693Z,6.30
2017-12-10T04:46:12.721Z,5.80
2017-12-10T04:47:12.750Z,6.20
2017-12-10T04:48:12.824Z,5.90
2017-12-10T04:49:12.819Z,6.50
2017-12-10T04:50:12.842Z,6.50
2017-12-10T04:51:12.865Z,6.70
2017-12-10T04:52:12.894Z,6.20
2017-12-10T04:53:12.924Z,6.50
2017-12-10T04:54:12.953Z,6.50
2017-12-10T04:55:12.982Z,6.50
2017-12-10T04:56:13.009Z,6.00
2017-12-10T04:57:13.040Z,6.50
2017-12-10T04:58:13.072Z,6.50
2017-12-10T04:59:13.107Z,6.20
2017-12-10T05:00:13.131Z,6.20
2017-12-10T05:01:13.159Z,6.30
2017-12-10T05:02:13.191Z,6.00
2017-12-10T05:03:13.218Z,5.90
2017-12-10T05:04:13.242Z,5.90
2017-12-10T05:05:13.274Z,6.00
2017-12-10T05:06:13.302Z,6.10
2017-12-10T05:07:13.330Z,5.80
2017-12-10T05:08:13.362Z,5.80
2017-12-10T05:09:13.388Z,5.70
2017-12-10T05:10:13.430Z,6.00
2017-12-10T05:11:13.448Z,6.60
2017-12-10T05:12:13.487Z,6.00
2017-12-10T05:13:13.507Z,7.10
2017-12-10T05:14:13.545Z,5.90
2017-12-10T05:15:13.565Z,6.50
2017-12-10T05:16:13.597Z,6.10
2017-12-10T05:17:13.624Z,6.20
2017-12-10T05:18:13.657Z,6.50
2017-12-10T05:19:13.693Z,6.80
2017-12-10T05:20:13.708Z,7.40
2017-12-10T05:21:13.749Z,9.60
2017-12-10T05:22:13.768Z,9.70
2017-12-10T05:23:13.798Z,7.00
2017-12-10T05:24:13.823Z,6.40
2017-12-10T05:25:13.863Z,6.20
2017-12-10T05:26:13.884Z,6.60
2017-12-10T05:27:13.915Z,5.80
2017-12-10T05:28:13.939Z,5.30
2017-12-10T05:29:13.973Z,5.20
2017-12-10T05:30:13.998Z,5.70
2017-12-10T05:31:14.026Z,5.40
2017-12-10T05:32:14.056Z,5.30
2017-12-10T05:33:14.090Z,5.50
2017-12-10T05:34:14.117Z,5.50
2017-12-10T05:35:14.143Z,5.30
2017-12-10T05:36:14.173Z,5.30
2017-12-10T05:37:14.204Z,5.40
2017-12-10T05:38:14.234Z,5.30
2017-12-10T05:39:14.263Z,5.20
2017-12-10T05:40:14.290Z,5.30
2017-12-10T05:41:14.319Z,5.40
2017-12-10T05:42:14.350Z,5.30
2017-12-10T05:43:14.377Z,5.50
2017-12-10T05:44:14.408Z,5.30
2017-12-10T05:45:14.438Z,5.70
2017-12-10T05:46:14.466Z,5.20
2017-12-10T05:47:14.495Z,5.40
2017-12-10T05:48:14.525Z,5.40
2017-12-10T05:49:14.550Z,5.50
2017-12-10T05:50:14.593Z,5.60
2017-12-10T05:51:14.610Z,5.90
2017-12-10T05:52:14.642Z,6.00
2017-12-10T05:53:14.672Z,6.10
2017-12-10T05:54:14.702Z,5.60
2017-12-10T05:55:14.748Z,5.60
2017-12-10T05:56:14.763Z,5.70
2017-12-10T05:57:14.786Z,5.70
2017-12-10T05:58:14.818Z,5.90
2017-12-10T05:59:14.841Z,6.10
2017-12-10T06:00:14.872Z,5.40
2017-12-10T06:01:14.913Z,5.30
2017-12-10T06:02:14.932Z,5.70
2017-12-10T06:03:14.963Z,5.60
2017-12-10T06:04:14.989Z,5.50
2017-12-10T06:05:15.020Z,5.30
2017-12-10T06:06:15.049Z,5.60
2017-12-10T06:07:15.075Z,5.40
2017-12-10T06:08:15.108Z,5.70
2017-12-10T06:09:15.133Z,5.70
2017-12-10T06:10:15.260Z,5.60
2017-12-10T06:11:15.193Z,5.90
2017-12-10T06:12:15.230Z,5.60
2017-12-10T06:13:15.256Z,5.80
2017-12-10T06:14:15.279Z,5.30
2017-12-10T06:15:15.310Z,5.40
2017-12-10T06:16:15.339Z,5.40
2017-12-10T06:17:15.368Z,5.50
2017-12-10T06:18:15.397Z,5.40
2017-12-10T06:19:15.427Z,5.10
2017-12-10T06:20:15.458Z,4.90
2017-12-10T06:21:15.595Z,5.40
2017-12-10T06:22:15.523Z,5.30
2017-12-10T06:23:15.548Z,5.20
2017-12-10T06:24:15.573Z,5.20
2017-12-10T06:25:15.604Z,5.40
2017-12-10T06:26:15.629Z,5.10
2017-12-10T06:27:15.659Z,5.20
2017-12-10T06:28:15.689Z,4.90
2017-12-10T06:29:15.718Z,5.10
2017-12-10T06:30:15.748Z,4.80
2017-12-10T06:31:15.778Z,5.30
2017-12-10T06:32:15.817Z,4.80
2017-12-10T06:33:15.835Z,5.30
2017-12-10T06:34:15.865Z,5.20
2017-12-10T06:35:15.892Z,4.80
2017-12-10T06:36:15.922Z,5.00
2017-12-10T06:37:15.960Z,5.20
2017-12-10T06:38:15.980Z,4.90
2017-12-10T06:39:16.009Z,4.90
2017-12-10T06:40:16.039Z,5.00
2017-12-10T06:41:16.069Z,4.70
2017-12-10T06:42:16.101Z,4.50
2017-12-10T06:43:16.127Z,5.10
2017-12-10T06:44:16.161Z,4.80
2017-12-10T06:45:16.185Z,4.70
2017-12-10T06:46:16.213Z,5.30
2017-12-10T06:47:16.242Z,4.60
2017-12-10T06:48:16.283Z,4.40
2017-12-10T06:49:16.303Z,4.40
2017-12-10T06:50:16.332Z,4.80
2017-12-10T06:51:16.362Z,4.40
2017-12-10T06:52:16.391Z,4.70
2017-12-10T06:53:16.421Z,4.20
2017-12-10T06:54:16.450Z,4.80
2017-12-10T06:55:16.483Z,4.40
2017-12-10T06:56:16.504Z,4.60
2017-12-10T06:57:16.535Z,4.50
2017-12-10T06:58:16.566Z,4.10
2017-12-10T06:59:16.591Z,4.30
2017-12-10T07:00:16.622Z,4.00
2017-12-10T07:01:16.651Z,4.30
2017-12-10T07:02:16.681Z,4.20
2017-12-10T07:03:16.711Z,4.60
2017-12-10T07:04:16.737Z,4.30
2017-12-10T07:05:16.772Z,4.00
2017-12-10T07:06:16.796Z,4.00
2017-12-10T07:07:16.825Z,4.70
2017-12-10T07:08:16.857Z,5.20
2017-12-10T07:09:16.888Z,4.50
2017-12-10T07:10:16.919Z,4.20
2017-12-10T07:11:16.943Z,4.30
2017-12-10T07:12:16.985Z,4.40
2017-12-10T07:13:17.010Z,4.80
2017-12-10T07:14:17.083Z,4.00
2017-12-10T07:15:17.057Z,4.10
2017-12-10T07:16:17.095Z,4.10
2017-12-10T07:17:17.119Z,4.10
2017-12-10T07:18:17.146Z,3.90
2017-12-10T07:19:17.176Z,4.30
2017-12-10T07:20:17.206Z,4.10
2017-12-10T07:21:17.236Z,4.00
2017-12-10T07:22:17.265Z,4.20
2017-12-10T07:23:17.317Z,4.20
2017-12-10T07:24:17.325Z,4.00
2017-12-10T07:25:17.355Z,4.20
2017-12-10T07:26:17.386Z,4.00
2017-12-10T07:27:17.408Z,4.30
2017-12-10T07:28:17.453Z,4.30
2017-12-10T07:29:17.471Z,4.00
2017-12-10T07:30:17.502Z,4.40
2017-12-10T07:31:17.537Z,4.00
2017-12-10T07:32:17.557Z,4.10
2017-12-10T07:33:17.587Z,3.80
2017-12-10T07:34:17.659Z,4.60
2017-12-10T07:35:17.644Z,4.10
2017-12-10T07:36:17.672Z,3.60
2017-12-10T07:37:17.706Z,4.00
2017-12-10T07:38:17.734Z,4.00
2017-12-10T07:39:17.766Z,3.90
2017-12-10T07:40:17.791Z,4.20
2017-12-10T07:41:17.820Z,4.00
2017-12-10T07:42:17.848Z,4.00
2017-12-10T07:43:17.877Z,4.50
2017-12-10T07:44:17.907Z,4.30
2017-12-10T07:45:17.938Z,3.90
2017-12-10T07:46:17.967Z,4.20
2017-12-10T07:47:17.999Z,4.30
2017-12-10T07:48:18.025Z,4.20
2017-12-10T07:49:18.055Z,3.80
2017-12-10T07:50:18.086Z,3.90
2017-12-10T07:51:18.112Z,4.50
2017-12-10T07:52:18.152Z,4.50
2017-12-10T07:53:18.171Z,4.20
2017-12-10T07:54:18.207Z,3.90
2017-12-10T07:55:18.230Z,4.20
2017-12-10T07:56:18.262Z,4.50
2017-12-10T07:57:18.288Z,5.30
2017-12-10T07:58:18.320Z,4.60
2017-12-10T07:59:18.347Z,4.10
2017-12-10T08:00:18.377Z,4.10
2017-12-10T08:01:18.407Z,3.80
2017-12-10T08:02:18.437Z,4.40
2017-12-10T08:03:18.466Z,4.30
2017-12-10T08:04:18.499Z,3.90
2017-12-10T08:05:18.527Z,4.00
2017-12-10T08:06:18.557Z,4.30
2017-12-10T08:07:18.584Z,4.10
2017-12-10T08:08:18.611Z,3.40
2017-12-10T08:09:18.643Z,3.70
2017-12-10T08:10:18.676Z,3.80
2017-12-10T08:11:18.700Z,3.90
2017-12-10T08:12:18.729Z,4.00
2017-12-10T08:13:18.768Z,3.80
2017-12-10T08:14:18.801Z,3.30
2017-12-10T08:15:18.818Z,3.70
2017-12-10T08:16:18.870Z,3.80
2017-12-10T08:17:18.879Z,3.70
2017-12-10T08:18:18.912Z,3.50
2017-12-10T08:19:18.939Z,3.70
2017-12-10T08:20:18.964Z,3.70
2017-12-10T08:21:19.000Z,4.40
2017-12-10T08:22:19.025Z,4.50
2017-12-10T08:23:19.054Z,3.50
2017-12-10T08:24:19.081Z,3.50
2017-12-10T08:25:19.165Z,3.70
2017-12-10T08:26:19.141Z,3.50
2017-12-10T08:27:19.174Z,3.70
2017-12-10T08:28:19.202Z,3.60
2017-12-10T08:29:19.230Z,3.50
2017-12-10T08:30:19.259Z,3.70
2017-12-10T08:31:19.289Z,3.20
2017-12-10T08:32:19.320Z,3.60
2017-12-10T08:33:19.350Z,3.60
2017-12-10T08:34:19.414Z,3.60
2017-12-10T08:35:19.415Z,3.50
2017-12-10T08:36:19.447Z,3.50
2017-12-10T08:37:19.471Z,3.30
2017-12-10T08:38:19.500Z,3.30
2017-12-10T08:39:19.526Z,3.30
2017-12-10T08:40:19.556Z,3.20
2017-12-10T08:41:19.591Z,3.30
2017-12-10T08:42:19.616Z,3.20
2017-12-10T08:43:19.648Z,3.50
2017-12-10T08:44:19.680Z,3.00
2017-12-10T08:45:19.808Z,3.50
2017-12-10T08:46:19.746Z,3.40
2017-12-10T08:47:19.765Z,3.80
2017-12-10T08:48:19.794Z,3.40
2017-12-10T08:49:19.838Z,3.50
2017-12-10T08:50:19.855Z,3.30
2017-12-10T08:51:19.882Z,3.10
2017-12-10T08:52:19.963Z,3.30
2017-12-10T08:53:19.942Z,3.50
2017-12-10T08:54:19.971Z,3.30
2017-12-10T08:55:20.011Z,3.20
2017-12-10T08:56:20.032Z,3.20
2017-12-10T08:57:20.062Z,3.10
2017-12-10T08:58:20.093Z,3.00
2017-12-10T08:59:20.123Z,3.60
2017-12-10T09:00:20.152Z,2.90
2017-12-10T09:01:20.187Z,3.20
2017-12-10T09:02:20.208Z,3.30
2017-12-10T09:03:20.237Z,3.00
2017-12-10T09:04:20.272Z,3.30
2017-12-10T09:05:20.306Z,2.90
2017-12-10T09:06:20.347Z,3.50
2017-12-10T09:07:20.365Z,3.30
2017-12-10T09:08:20.397Z,3.10
2017-12-10T09:09:20.418Z,2.50
2017-12-10T09:10:20.452Z,3.00
2017-12-10T09:11:20.476Z,3.00
2017-12-10T09:12:20.505Z,3.20
2017-12-10T09:13:20.536Z,3.20
2017-12-10T09:14:20.577Z,3.30
2017-12-10T09:15:20.597Z,3.20
2017-12-10T09:16:20.633Z,3.30
2017-12-10T09:17:20.655Z,3.40
2017-12-10T09:18:20.689Z,3.40
2017-12-10T09:19:20.717Z,3.50
2017-12-10T09:20:20.744Z,3.20
2017-12-10T09:21:20.777Z,3.40
2017-12-10T09:22:20.808Z,3.60
2017-12-10T09:23:20.834Z,3.20
2017-12-10T09:24:20.867Z,3.10
2017-12-10T09:25:20.942Z,3.60
2017-12-10T09:26:20.927Z,3.60
2017-12-10T09:27:20.960Z,3.30
2017-12-10T09:28:20.993Z,3.40
2017-12-10T09:29:21.014Z,3.30
2017-12-10T09:30:21.052Z,3.40
2017-12-10T09:31:21.076Z,3.20
2017-12-10T09:32:21.107Z,3.50
2017-12-10T09:33:21.137Z,3.10
2017-12-10T09:35:21.201Z,3.00
2017-12-10T09:36:21.285Z,2.90
2017-12-10T09:37:21.256Z,2.90
2017-12-10T09:38:21.288Z,3.20
2017-12-10T09:39:21.315Z,3.40
2017-12-10T09:40:21.345Z,3.50
2017-12-10T09:41:21.377Z,3.30
2017-12-10T09:42:21.406Z,3.20
2017-12-10T09:43:21.437Z,2.90
2017-12-10T09:44:21.468Z,3.10
2017-12-10T09:45:21.509Z,3.00
2017-12-10T09:46:21.529Z,2.80
2017-12-10T09:47:21.560Z,3.30
2017-12-10T09:48:21.632Z,3.20
2017-12-10T09:49:21.618Z,4.00
2017-12-10T09:50:21.648Z,3.20
2017-12-10T09:51:21.681Z,3.20
2017-12-10T09:52:21.708Z,3.30
2017-12-10T09:53:21.738Z,4.80
2017-12-10T09:54:21.769Z,4.70
2017-12-10T09:55:21.797Z,3.90
2017-12-10T09:56:21.827Z,3.70
2017-12-10T09:57:21.862Z,3.50
2017-12-10T09:58:21.889Z,4.60
2017-12-10T09:59:21.919Z,9.20
2017-12-10T10:00:21.951Z,7.10
2017-12-10T10:01:21.983Z,7.00
2017-12-10T10:02:22.010Z,7.60
2017-12-10T10:03:22.040Z,9.40
2017-12-10T10:04:22.074Z,10.50
2017-12-10T10:05:22.103Z,8.60
2017-12-10T10:06:22.130Z,10.30
2017-12-10T10:07:22.167Z,8.70
2017-12-10T10:08:22.192Z,3.90
2017-12-10T10:09:22.224Z,3.00
2017-12-10T10:10:22.257Z,3.50
2017-12-10T10:11:22.280Z,3.40
2017-12-10T10:12:22.319Z,3.70
2017-12-10T10:13:22.350Z,3.70
2017-12-10T10:14:22.383Z,3.80
2017-12-10T10:15:22.403Z,4.00
2017-12-10T10:16:22.433Z,4.50
2017-12-10T10:17:22.469Z,5.00
2017-12-10T10:18:22.506Z,4.50
2017-12-10T10:19:22.536Z,4.50
2017-12-10T10:20:22.559Z,5.40
2017-12-10T10:21:22.590Z,4.60
2017-12-10T10:22:22.618Z,4.30
2017-12-10T10:23:22.658Z,4.90
2017-12-10T10:24:22.716Z,4.60
2017-12-10T10:25:22.718Z,4.40
2017-12-10T10:26:22.740Z,4.50
2017-12-10T10:27:22.774Z,4.50
2017-12-10T10:28:22.815Z,4.50
2017-12-10T10:29:22.830Z,4.20
2017-12-10T10:30:22.870Z,4.50
2017-12-10T10:31:22.893Z,5.00
2017-12-10T10:32:22.920Z,4.60
2017-12-10T10:33:22.954Z,4.30
2017-12-10T10:34:22.979Z,4.40
2017-12-10T10:35:23.010Z,4.60
2017-12-10T10:36:23.055Z,4.20
2017-12-10T10:37:23.072Z,3.50
2017-12-10T10:38:23.114Z,3.30
2017-12-10T10:39:23.136Z,2.80
2017-12-10T10:40:23.164Z,2.70
2017-12-10T10:41:23.197Z,3.10
2017-12-10T10:42:23.228Z,3.20
2017-12-10T10:43:23.257Z,3.10
2017-12-10T10:44:23.286Z,2.80
2017-12-10T10:45:23.387Z,3.20
2017-12-10T10:46:23.346Z,3.00
2017-12-10T10:47:23.483Z,3.40
2017-12-10T10:48:23.406Z,3.40
2017-12-10T10:49:23.436Z,2.70
2017-12-10T10:50:23.468Z,2.60
2017-12-10T10:51:23.508Z,2.90
2017-12-10T10:52:23.529Z,2.90
2017-12-10T10:53:23.567Z,2.70
2017-12-10T10:54:23.593Z,2.60
2017-12-10T10:55:23.617Z,2.70
2017-12-10T10:56:23.659Z,2.80
2017-12-10T10:57:23.679Z,3.00
2017-12-10T10:58:23.713Z,2.70
2017-12-10T10:59:23.744Z,2.80
2017-12-10T11:00:23.776Z,3.00
2017-12-10T11:01:23.803Z,2.80
2017-12-10T11:02:23.833Z,2.80
2017-12-10T11:03:23.864Z,2.50
2017-12-10T11:04:23.894Z,2.70
2017-12-10T11:05:23.932Z,2.50
2017-12-10T11:06:23.955Z,2.80
2017-12-10T11:07:23.993Z,2.90
2017-12-10T11:08:24.013Z,3.10
2017-12-10T11:09:24.046Z,2.60
2017-12-10T11:10:24.083Z,2.60
2017-12-10T11:11:24.106Z,2.70
2017-12-10T11:12:24.137Z,2.90
2017-12-10T11:13:24.167Z,3.00
2017-12-10T11:14:24.197Z,3.20
2017-12-10T11:15:24.227Z,3.20
2017-12-10T11:16:24.266Z,3.00
2017-12-10T11:17:24.294Z,2.70
2017-12-10T11:18:24.317Z,2.90
2017-12-10T11:19:24.354Z,2.90
2017-12-10T11:20:24.379Z,2.90
2017-12-10T11:21:24.408Z,2.70
2017-12-10T11:22:24.454Z,2.80
2017-12-10T11:23:24.470Z,3.00
2017-12-10T11:24:24.498Z,3.10
2017-12-10T11:25:24.536Z,2.90
2017-12-10T11:26:24.561Z,3.40
2017-12-10T11:27:24.593Z,2.90
2017-12-10T11:28:24.628Z,2.90
2017-12-10T11:29:24.651Z,3.10
2017-12-10T11:30:24.687Z,2.80
2017-12-10T11:31:24.711Z,2.60
2017-12-10T11:32:24.765Z,2.60
2017-12-10T11:33:24.777Z,2.80
2017-12-10T11:34:24.807Z,2.70
2017-12-10T11:35:24.837Z,2.70
2017-12-10T11:36:24.884Z,3.00
2017-12-10T11:37:24.895Z,2.30
2017-12-10T11:38:24.927Z,2.80
2017-12-10T11:39:24.953Z,3.90
2017-12-10T11:40:24.988Z,4.80
2017-12-10T11:41:25.017Z,7.30
2017-12-10T11:42:25.047Z,9.20
2017-12-10T11:43:25.072Z,6.80
2017-12-10T11:44:25.103Z,6.10
2017-12-10T11:45:25.250Z,6.40
2017-12-10T11:46:25.168Z,7.50
2017-12-10T11:47:25.250Z,5.10
2017-12-10T11:48:25.227Z,4.40
2017-12-10T11:49:25.258Z,3.30
2017-12-10T11:50:25.288Z,3.30
2017-12-10T11:51:25.314Z,3.30
2017-12-10T11:52:25.349Z,3.40
2017-12-10T11:53:25.378Z,4.00
2017-12-10T11:54:25.412Z,4.70
2017-12-10T11:55:25.436Z,3.70
2017-12-10T11:56:25.486Z,3.80
2017-12-10T11:57:25.499Z,3.60
2017-12-10T11:58:25.527Z,3.40
2017-12-10T11:59:25.555Z,3.40
2017-12-10T12:00:25.583Z,3.20
2017-12-10T12:01:25.618Z,3.20
2017-12-10T12:02:25.651Z,3.50
2017-12-10T12:03:25.676Z,3.50
2017-12-10T12:04:25.705Z,3.50
2017-12-10T12:05:25.731Z,3.90
2017-12-10T12:06:25.763Z,3.90
2017-12-10T12:07:25.864Z,4.10
2017-12-10T12:08:25.825Z,4.20
2017-12-10T12:09:25.854Z,4.20
2017-12-10T12:10:25.884Z,4.20
2017-12-10T12:11:25.911Z,4.40
2017-12-10T12:12:25.940Z,4.20
2017-12-10T12:13:25.990Z,4.10
2017-12-10T12:14:25.999Z,4.20
2017-12-10T12:15:26.030Z,3.80
2017-12-10T12:16:26.059Z,4.10
2017-12-10T12:17:26.090Z,4.20
2017-12-10T12:18:26.121Z,3.80
2017-12-10T12:19:26.154Z,4.10
2017-12-10T12:20:26.174Z,4.30
2017-12-10T12:21:26.213Z,4.40
2017-12-10T12:22:26.248Z,4.30
2017-12-10T12:23:26.266Z,4.00
2017-12-10T12:24:26.304Z,4.00
2017-12-10T12:25:26.325Z,4.30
2017-12-10T12:26:26.360Z,4.30
2017-12-10T12:27:26.385Z,4.20
2017-12-10T12:28:26.417Z,4.30
2017-12-10T12:29:26.443Z,4.50
2017-12-10T12:30:26.473Z,4.30
2017-12-10T12:31:26.504Z,4.60
2017-12-10T12:32:26.545Z,4.50
2017-12-10T12:33:26.563Z,4.90
2017-12-10T12:34:26.590Z,4.30
2017-12-10T12:35:26.618Z,4.50
2017-12-10T12:36:26.648Z,4.50
2017-12-10T12:37:26.684Z,4.50
2017-12-10T12:38:26.705Z,4.50
2017-12-10T12:39:26.742Z,4.60
2017-12-10T12:40:26.772Z,4.10
2017-12-10T12:41:26.796Z,4.30
2017-12-10T12:42:26.822Z,4.30
2017-12-10T12:43:26.854Z,4.10
2017-12-10T12:44:26.886Z,4.00
2017-12-10T12:45:26.912Z,4.30
2017-12-10T12:46:26.945Z,4.60
2017-12-10T12:47:27.049Z,4.70
2017-12-10T12:48:26.997Z,4.40
2017-12-10T12:49:27.049Z,4.00
2017-12-10T12:50:27.067Z,4.40
2017-12-10T12:51:27.094Z,4.60
2017-12-10T12:52:27.118Z,4.80
2017-12-10T12:53:27.151Z,4.90
2017-12-10T12:54:27.180Z,5.20
2017-12-10T12:55:27.205Z,5.10
2017-12-10T12:56:27.236Z,5.30
2017-12-10T12:57:27.266Z,5.00
2017-12-10T12:58:27.398Z,5.10
2017-12-10T12:59:27.324Z,5.20
2017-12-10T13:00:27.349Z,6.30
2017-12-10T13:01:27.378Z,7.30
2017-12-10T13:02:27.410Z,7.80
2017-12-10T13:03:27.438Z,7.60
2017-12-10T13:04:27.464Z,7.80
2017-12-10T13:05:27.503Z,8.50
2017-12-10T13:06:27.532Z,9.50
2017-12-10T13:07:27.568Z,8.00
2017-12-10T13:08:27.592Z,9.70
2017-12-10T13:09:27.621Z,8.00
2017-12-10T13:10:27.642Z,8.10
2017-12-10T13:11:27.680Z,11.30
2017-12-10T13:12:27.747Z,10.00
2017-12-10T13:13:27.727Z,9.40
2017-12-10T13:14:27.757Z,9.30
2017-12-10T13:15:27.781Z,8.90
2017-12-10T13:16:27.808Z,8.10
2017-12-10T13:17:27.853Z,7.10
2017-12-10T13:18:27.875Z,8.10
2017-12-10T13:19:27.898Z,7.10